Date,TemperatureHighF,TemperatureAvgF,TemperatureLowF,DewpointHighF,DewpointAvgF,DewpointLowF,HumidityHigh,HumidityAvg,HumidityLow,PressureMaxIn,PressureMinIn,WindSpeedMaxMPH,WindSpeedAvgMPH,GustSpeedMaxMPH,PrecipitationSumIn
2013-1-1,74.7,61.0,49.3,59.8,53.6,46.7,94,78,57,30.47,30.29,0,0,0,0.00
2013-1-2,76.9,64.8,54.6,67.6,60.5,51.7,95,86,70,30.32,30.24,0,0,0,0.00
2013-1-3,68.8,61.9,56.5,64.6,59.9,54.8,96,93,85,30.42,30.27,0,0,0,0.25
2013-1-4,59.1,55.8,52.8,57.0,54.0,51.2,95,94,91,30.53,30.40,27,1,27,0.12
2013-1-5,69.3,59.5,52.9,59.7,54.5,49.1,93,84,68,30.55,30.42,0,0,0,0.00
2013-1-6,75.6,63.3,58.3,67.7,60.1,55.8,96,90,73,30.45,30.32,0,0,0,0.00
2013-1-7,65.0,60.3,56.7,60.6,56.5,51.6,95,87,74,30.46,30.35,0,0,0,0.02
2013-1-8,78.7,67.1,58.3,68.0,61.7,56.7,95,84,63,30.47,30.37,0,0,0,0.00
2013-1-9,80.3,70.9,65.2,69.1,65.0,62.1,95,82,62,30.54,30.41,0,0,0,0.00
2013-1-10,78.3,70.5,65.4,67.5,64.1,61.4,95,81,58,30.54,30.45,0,0,0,0.00
2013-1-11,79.9,69.2,60.7,66.4,61.6,58.0,94,78,55,30.51,30.38,0,0,0,0.00
2013-1-12,80.5,69.0,61.0,67.3,63.1,58.6,94,82,59,30.43,30.33,0,0,0,0.00
2013-1-13,78.1,68.9,61.9,66.6,62.4,58.7,91,80,63,30.42,30.31,0,0,0,0.00
2013-1-14,80.5,67.8,59.2,65.0,59.7,55.0,93,77,51,30.44,30.36,0,0,0,0.00
2013-1-15,80.1,66.6,58.0,65.8,59.7,55.0,94,80,57,30.40,30.30,14,0,14,0.00
2013-1-16,81.2,67.6,59.1,65.7,60.1,57.1,95,79,49,30.36,30.25,0,0,0,0.00
2013-1-17,66.3,59.1,51.3,65.1,54.4,42.7,96,85,67,30.41,30.23,0,0,0,0.19
2013-1-18,60.3,51.9,40.0,51.2,43.3,33.1,77,72,63,30.57,30.40,14,0,14,0.00
2013-1-19,72.4,61.6,51.3,58.6,52.5,44.1,84,72,60,30.53,30.37,0,0,0,0.00
2013-1-20,73.3,62.9,56.7,60.8,56.0,52.2,89,78,64,30.43,30.29,0,0,0,0.02
2013-1-21,72.9,62.6,56.7,61.7,54.4,49.0,85,75,60,30.36,30.28,0,0,0,0.00
2013-1-22,65.7,56.9,48.4,49.3,38.6,28.8,77,53,29,30.54,30.33,0,0,0,0.00
2013-1-23,66.6,53.2,42.7,41.7,37.0,31.1,80,56,34,30.63,30.52,0,0,0,0.00
2013-1-24,69.0,53.3,40.9,51.4,44.2,37.3,89,73,44,30.60,30.50,0,0,0,0.00
2013-1-25,70.9,55.1,43.2,56.7,46.9,40.7,93,76,44,30.57,30.44,0,0,0,0.00
2013-1-26,71.1,57.8,46.3,58.0,51.4,44.1,93,81,58,30.54,30.43,0,0,0,0.00
2013-1-27,74.9,60.4,48.1,59.6,52.6,45.8,94,78,46,30.57,30.46,0,0,0,0.00
2013-1-28,77.8,67.1,60.1,64.8,59.7,55.5,93,78,54,30.57,30.45,0,0,0,0.00
2013-1-29,81.7,68.8,60.9,66.9,62.5,58.8,96,81,56,30.48,30.33,0,0,0,0.00
2013-1-30,78.7,70.0,63.4,65.8,63.2,60.4,90,80,61,30.34,30.16,0,0,0,0.00
2013-1-31,67.9,55.2,46.3,64.0,43.0,32.1,91,65,41,30.50,30.17,0,0,0,0.14